sensor_id;sensor_type;location;lat;lon;timestamp;temperature;humidity
15274;DHT22;7738;49.532;11.156;2024-03-23T00:53:18;6.80;99.90
15274;DHT22;7738;49.532;11.156;2024-03-23T00:55:47;6.80;99.90
15274;DHT22;7738;49.532;11.156;2024-03-23T00:58:13;6.70;99.90
15274;DHT22;7738;49.532;11.156;2024-03-23T01:00:40;6.70;99.90
15274;DHT22;7738;49.532;11.156;2024-03-23T01:03:06;6.70;99.90
15274;DHT22;7738;49.532;11.156;2024-03-23T01:05:33;6.70;99.90
15274;DHT22;7738;49.532;11.156;2024-03-23T01:07:59;6.70;99.90
15274;DHT22;7738;49.532;11.156;2024-03-23T01:10:25;6.70;99.90
15274;DHT22;7738;49.532;11.156;2024-03-23T01:12:54;6.60;99.90
15274;DHT22;7738;49.532;11.156;2024-03-23T01:15:21;6.60;99.90
15274;DHT22;7738;49.532;11.156;2024-03-23T01:17:47;6.60;99.90
15274;DHT22;7738;49.532;11.156;2024-03-23T01:20:14;6.60;99.90
15274;DHT22;7738;49.532;11.156;2024-03-23T01:22:40;6.60;99.90
15274;DHT22;7738;49.532;11.156;2024-03-23T01:25:07;6.60;99.90
15274;DHT22;7738;49.532;11.156;2024-03-23T01:27:34;6.50;99.90
15274;DHT22;7738;49.532;11.156;2024-03-23T01:30:03;6.60;99.90
15274;DHT22;7738;49.532;11.156;2024-03-23T01:32:30;6.60;99.90
15274;DHT22;7738;49.532;11.156;2024-03-23T01:34:56;6.60;99.90
15274;DHT22;7738;49.532;11.156;2024-03-23T01:37:22;6.60;99.90
15274;DHT22;7738;49.532;11.156;2024-03-23T01:39:49;6.50;99.90
15274;DHT22;7738;49.532;11.156;2024-03-23T01:42:15;6.50;99.90
15274;DHT22;7738;49.532;11.156;2024-03-23T01:44:42;6.50;99.90
15274;DHT22;7738;49.532;11.156;2024-03-23T01:47:11;6.40;99.90
15274;DHT22;7738;49.532;11.156;2024-03-23T01:49:37;6.40;99.90
15274;DHT22;7738;49.532;11.156;2024-03-23T01:52:04;6.50;99.90
15274;DHT22;7738;49.532;11.156;2024-03-23T01:54:30;6.50;99.90
15274;DHT22;7738;49.532;11.156;2024-03-23T01:56:57;6.60;99.90
15274;DHT22;7738;49.532;11.156;2024-03-23T01:59:24;6.70;99.90
15274;DHT22;7738;49.532;11.156;2024-03-23T02:01:50;6.80;99.90
15274;DHT22;7738;49.532;11.156;2024-03-23T02:04:21;7.00;99.90
15274;DHT22;7738;49.532;11.156;2024-03-23T02:06:48;7.10;99.90
15274;DHT22;7738;49.532;11.156;2024-03-23T02:09:14;7.10;99.90
15274;DHT22;7738;49.532;11.156;2024-03-23T02:11:41;7.10;99.90
15274;DHT22;7738;49.532;11.156;2024-03-23T02:14:07;7.10;99.90
15274;DHT22;7738;49.532;11.156;2024-03-23T02:16:34;7.10;99.90
15274;DHT22;7738;49.532;11.156;2024-03-23T02:19:00;7.10;99.90
15274;DHT22;7738;49.532;11.156;2024-03-23T02:21:29;7.00;99.90
15274;DHT22;7738;49.532;11.156;2024-03-23T02:23:58;7.10;99.90
15274;DHT22;7738;49.532;11.156;2024-03-23T02:26:25;7.10;99.90
15274;DHT22;7738;49.532;11.156;2024-03-23T02:28:51;7.20;99.90
15274;DHT22;7738;49.532;11.156;2024-03-23T02:31:18;7.20;99.90
15274;DHT22;7738;49.532;11.156;2024-03-23T02:41:07;7.40;99.90
15274;DHT22;7738;49.532;11.156;2024-03-23T02:48:28;7.40;99.90
15274;DHT22;7738;49.532;11.156;2024-03-23T02:58:18;7.50;99.90
15274;DHT22;7738;49.532;11.156;2024-03-23T03:08:05;7.70;99.90
15274;DHT22;7738;49.532;11.156;2024-03-23T03:15:28;7.80;99.90
15274;DHT22;7738;49.532;11.156;2024-03-23T03:30:10;8.00;99.90
15274;DHT22;7738;49.532;11.156;2024-03-23T03:32:39;8.00;99.90
15274;DHT22;7738;49.532;11.156;2024-03-23T03:49:49;7.70;99.90
15274;DHT22;7738;49.532;11.156;2024-03-23T04:07:01;7.50;99.90
15274;DHT22;7738;49.532;11.156;2024-03-23T04:24:11;7.20;99.90
15274;DHT22;7738;49.532;11.156;2024-03-23T04:26:41;7.10;99.90
15274;DHT22;7738;49.532;11.156;2024-03-23T04:41:24;7.00;99.90
15274;DHT22;7738;49.532;11.156;2024-03-23T04:58:34;7.10;99.90
15274;DHT22;7738;49.532;11.156;2024-03-23T05:15:43;7.20;99.90
15274;DHT22;7738;49.532;11.156;2024-03-23T05:32:53;7.60;99.90
15274;DHT22;7738;49.532;11.156;2024-03-23T05:37:46;7.70;99.90
15274;DHT22;7738;49.532;11.156;2024-03-23T05:40:13;7.80;99.90
15274;DHT22;7738;49.532;11.156;2024-03-23T05:42:40;7.90;99.90
15274;DHT22;7738;49.532;11.156;2024-03-23T05:45:07;8.00;99.90
15274;DHT22;7738;49.532;11.156;2024-03-23T05:47:34;8.00;99.90
15274;DHT22;7738;49.532;11.156;2024-03-23T05:50:03;8.20;99.90
15274;DHT22;7738;49.532;11.156;2024-03-23T06:04:45;8.60;99.90
15274;DHT22;7738;49.532;11.156;2024-03-23T06:07:14;8.60;99.90
15274;DHT22;7738;49.532;11.156;2024-03-23T06:12:08;8.70;99.90
15274;DHT22;7738;49.532;11.156;2024-03-23T06:19:28;8.70;99.90
15274;DHT22;7738;49.532;11.156;2024-03-23T06:24:24;8.70;99.90
15274;DHT22;7738;49.532;11.156;2024-03-23T06:26:51;8.70;99.90
15274;DHT22;7738;49.532;11.156;2024-03-23T06:41:34;8.60;99.90
15274;DHT22;7738;49.532;11.156;2024-03-23T06:44:00;8.50;99.90
15274;DHT22;7738;49.532;11.156;2024-03-23T06:51:20;8.60;99.90
15274;DHT22;7738;49.532;11.156;2024-03-23T06:53:47;8.60;99.90
15274;DHT22;7738;49.532;11.156;2024-03-23T06:56:13;8.60;99.90
15274;DHT22;7738;49.532;11.156;2024-03-23T06:58:43;8.70;99.90
15274;DHT22;7738;49.532;11.156;2024-03-23T07:01:09;8.70;99.90
15274;DHT22;7738;49.532;11.156;2024-03-23T07:06:03;8.80;99.90
15274;DHT22;7738;49.532;11.156;2024-03-23T07:08:29;8.90;99.90
15274;DHT22;7738;49.532;11.156;2024-03-23T07:10:56;8.90;99.90
15274;DHT22;7738;49.532;11.156;2024-03-23T07:13:22;8.90;99.90
15274;DHT22;7738;49.532;11.156;2024-03-23T07:15:55;8.90;99.90
15274;DHT22;7738;49.532;11.156;2024-03-23T07:18:22;8.90;99.90
15274;DHT22;7738;49.532;11.156;2024-03-23T07:20:55;8.80;99.90
15274;DHT22;7738;49.532;11.156;2024-03-23T07:23:22;8.80;99.90
15274;DHT22;7738;49.532;11.156;2024-03-23T07:25:58;8.80;99.90
15274;DHT22;7738;49.532;11.156;2024-03-23T07:28:25;8.80;99.90
15274;DHT22;7738;49.532;11.156;2024-03-23T07:31:07;8.80;99.90
15274;DHT22;7738;49.532;11.156;2024-03-23T07:33:35;8.80;99.90
15274;DHT22;7738;49.532;11.156;2024-03-23T07:36:02;8.70;99.90
15274;DHT22;7738;49.532;11.156;2024-03-23T07:38:29;8.70;99.90
15274;DHT22;7738;49.532;11.156;2024-03-23T07:41:06;8.70;99.90
15274;DHT22;7738;49.532;11.156;2024-03-23T07:45:59;8.70;99.90
15274;DHT22;7738;49.532;11.156;2024-03-23T07:48:28;9.50;99.90
15274;DHT22;7738;49.532;11.156;2024-03-23T07:50:59;8.70;99.90
15274;DHT22;7738;49.532;11.156;2024-03-23T07:53:26;8.60;99.90
15274;DHT22;7738;49.532;11.156;2024-03-23T07:55:56;8.50;99.90
15274;DHT22;7738;49.532;11.156;2024-03-23T07:58:23;8.50;99.90
15274;DHT22;7738;49.532;11.156;2024-03-23T08:00:49;8.50;99.90
15274;DHT22;7738;49.532;11.156;2024-03-23T08:03:16;8.40;99.90
15274;DHT22;7738;49.532;11.156;2024-03-23T08:05:45;8.50;99.90
15274;DHT22;7738;49.532;11.156;2024-03-23T08:08:12;8.50;99.90
15274;DHT22;7738;49.532;11.156;2024-03-23T08:10:47;8.70;99.90
15274;DHT22;7738;49.532;11.156;2024-03-23T08:13:13;8.90;99.90
15274;DHT22;7738;49.532;11.156;2024-03-23T08:15:40;8.50;99.90
15274;DHT22;7738;49.532;11.156;2024-03-23T08:18:07;8.50;99.90
15274;DHT22;7738;49.532;11.156;2024-03-23T08:20:33;8.30;99.90
15274;DHT22;7738;49.532;11.156;2024-03-23T08:23:03;8.00;99.90
15274;DHT22;7738;49.532;11.156;2024-03-23T08:25:30;7.90;99.90
15274;DHT22;7738;49.532;11.156;2024-03-23T08:30:24;7.70;99.90
15274;DHT22;7738;49.532;11.156;2024-03-23T08:32:50;7.70;99.90
15274;DHT22;7738;49.532;11.156;2024-03-23T08:35:17;7.50;99.90
15274;DHT22;7738;49.532;11.156;2024-03-23T08:37:43;7.40;99.90
15274;DHT22;7738;49.532;11.156;2024-03-23T08:40:13;7.30;99.90
15274;DHT22;7738;49.532;11.156;2024-03-23T08:42:39;8.80;99.90
15274;DHT22;7738;49.532;11.156;2024-03-23T08:47:34;7.20;99.90
15274;DHT22;7738;49.532;11.156;2024-03-23T08:57:24;7.20;99.90
15274;DHT22;7738;49.532;11.156;2024-03-23T09:09:38;6.70;99.90
15274;DHT22;7738;49.532;11.156;2024-03-23T09:12:06;6.60;99.90
15274;DHT22;7738;49.532;11.156;2024-03-23T09:14:35;6.50;99.90
15274;DHT22;7738;49.532;11.156;2024-03-23T09:24:22;6.30;99.90
15274;DHT22;7738;49.532;11.156;2024-03-23T09:26:48;6.40;99.90
15274;DHT22;7738;49.532;11.156;2024-03-23T09:29:15;6.40;99.90
15274;DHT22;7738;49.532;11.156;2024-03-23T09:31:44;6.60;99.90
15274;DHT22;7738;49.532;11.156;2024-03-23T09:34:10;6.70;99.90
15274;DHT22;7738;49.532;11.156;2024-03-23T09:36:37;6.80;99.90
15274;DHT22;7738;49.532;11.156;2024-03-23T09:39:03;7.10;99.90
15274;DHT22;7738;49.532;11.156;2024-03-23T09:41:30;7.20;99.90
15274;DHT22;7738;49.532;11.156;2024-03-23T09:48:52;7.70;99.90
15274;DHT22;7738;49.532;11.156;2024-03-23T09:58:39;7.50;99.90
15274;DHT22;7738;49.532;11.156;2024-03-23T10:06:05;7.60;99.90
15274;DHT22;7738;49.532;11.156;2024-03-23T10:10:58;7.70;99.90
15274;DHT22;7738;49.532;11.156;2024-03-23T10:13:41;7.70;99.90
15274;DHT22;7738;49.532;11.156;2024-03-23T10:18:37;8.10;99.90
15274;DHT22;7738;49.532;11.156;2024-03-23T10:21:10;8.50;99.90
15274;DHT22;7738;49.532;11.156;2024-03-23T10:23:37;8.30;99.90
15274;DHT22;7738;49.532;11.156;2024-03-23T10:26:15;8.30;99.90
15274;DHT22;7738;49.532;11.156;2024-03-23T10:29:03;8.10;99.90
15274;DHT22;7738;49.532;11.156;2024-03-23T10:31:31;7.80;99.90
15274;DHT22;7738;49.532;11.156;2024-03-23T10:33:58;7.70;99.90
15274;DHT22;7738;49.532;11.156;2024-03-23T10:36:27;7.90;99.90
15274;DHT22;7738;49.532;11.156;2024-03-23T10:38:55;7.50;99.90
15274;DHT22;7738;49.532;11.156;2024-03-23T10:41:21;7.40;99.90
15274;DHT22;7738;49.532;11.156;2024-03-23T10:48:43;7.30;99.90
15274;DHT22;7738;49.532;11.156;2024-03-23T10:51:10;7.30;99.90
15274;DHT22;7738;49.532;11.156;2024-03-23T10:53:40;7.40;99.90
15274;DHT22;7738;49.532;11.156;2024-03-23T10:58:38;7.80;99.90
15274;DHT22;7738;49.532;11.156;2024-03-23T11:03:35;7.90;99.90
15274;DHT22;7738;49.532;11.156;2024-03-23T11:06:03;7.80;99.90
15274;DHT22;7738;49.532;11.156;2024-03-23T11:08:34;7.80;99.90
15274;DHT22;7738;49.532;11.156;2024-03-23T11:11:21;7.90;99.90
15274;DHT22;7738;49.532;11.156;2024-03-23T11:13:48;8.00;99.90
15274;DHT22;7738;49.532;11.156;2024-03-23T11:16:16;8.00;99.90
15274;DHT22;7738;49.532;11.156;2024-03-23T11:18:43;7.90;99.90
15274;DHT22;7738;49.532;11.156;2024-03-23T11:21:10;8.00;99.90
15274;DHT22;7738;49.532;11.156;2024-03-23T11:23:36;8.20;99.90
15274;DHT22;7738;49.532;11.156;2024-03-23T11:26:07;8.20;99.90
15274;DHT22;7738;49.532;11.156;2024-03-23T11:28:36;8.80;99.90
15274;DHT22;7738;49.532;11.156;2024-03-23T11:31:09;9.70;99.90
15274;DHT22;7738;49.532;11.156;2024-03-23T11:33:36;9.60;99.90
15274;DHT22;7738;49.532;11.156;2024-03-23T11:36:03;10.40;99.90
15274;DHT22;7738;49.532;11.156;2024-03-23T11:38:36;9.20;99.90
15274;DHT22;7738;49.532;11.156;2024-03-23T11:41:03;8.90;99.90
15274;DHT22;7738;49.532;11.156;2024-03-23T11:45:59;9.10;99.90
15274;DHT22;7738;49.532;11.156;2024-03-23T11:48:25;9.10;99.90
15274;DHT22;7738;49.532;11.156;2024-03-23T11:50:57;9.90;97.50
15274;DHT22;7738;49.532;11.156;2024-03-23T11:53:25;9.80;97.80
15274;DHT22;7738;49.532;11.156;2024-03-23T11:55:55;9.70;97.70
15274;DHT22;7738;49.532;11.156;2024-03-23T11:58:23;9.80;98.10
15274;DHT22;7738;49.532;11.156;2024-03-23T12:00:50;9.50;97.90
15274;DHT22;7738;49.532;11.156;2024-03-23T12:03:20;9.20;97.10
15274;DHT22;7738;49.532;11.156;2024-03-23T12:05:48;9.30;98.20
15274;DHT22;7738;49.532;11.156;2024-03-23T12:08:17;9.20;97.50
15274;DHT22;7738;49.532;11.156;2024-03-23T12:10:46;9.20;97.90
15274;DHT22;7738;49.532;11.156;2024-03-23T12:13:21;8.90;97.30
15274;DHT22;7738;49.532;11.156;2024-03-23T12:15:49;9.60;97.40
15274;DHT22;7738;49.532;11.156;2024-03-23T12:18:16;9.70;96.30
15274;DHT22;7738;49.532;11.156;2024-03-23T12:20:45;9.60;95.20
15274;DHT22;7738;49.532;11.156;2024-03-23T12:23:12;9.80;93.70
15274;DHT22;7738;49.532;11.156;2024-03-23T12:28:08;9.70;92.90
15274;DHT22;7738;49.532;11.156;2024-03-23T12:30:37;10.30;92.00
15274;DHT22;7738;49.532;11.156;2024-03-23T12:33:05;10.20;89.70
15274;DHT22;7738;49.532;11.156;2024-03-23T12:38:01;10.50;88.00
15274;DHT22;7738;49.532;11.156;2024-03-23T12:40:27;10.50;88.70
15274;DHT22;7738;49.532;11.156;2024-03-23T12:47:47;10.00;78.70
15274;DHT22;7738;49.532;11.156;2024-03-23T12:50:14;13.30;84.10
15274;DHT22;7738;49.532;11.156;2024-03-23T12:52:40;10.30;81.80
15274;DHT22;7738;49.532;11.156;2024-03-23T12:55:10;10.50;80.90
15274;DHT22;7738;49.532;11.156;2024-03-23T13:00:04;9.80;76.70
15274;DHT22;7738;49.532;11.156;2024-03-23T13:02:30;9.90;81.50
15274;DHT22;7738;49.532;11.156;2024-03-23T13:04:57;9.80;81.70
15274;DHT22;7738;49.532;11.156;2024-03-23T13:09:50;9.90;82.10
15274;DHT22;7738;49.532;11.156;2024-03-23T13:12:20;10.10;80.50
15274;DHT22;7738;49.532;11.156;2024-03-23T13:17:13;10.80;74.80
15274;DHT22;7738;49.532;11.156;2024-03-23T13:24:33;10.80;79.30
15274;DHT22;7738;49.532;11.156;2024-03-23T13:29:29;10.90;75.90
15274;DHT22;7738;49.532;11.156;2024-03-23T13:34:22;10.70;76.80
15274;DHT22;7738;49.532;11.156;2024-03-23T13:36:48;10.30;77.80
15274;DHT22;7738;49.532;11.156;2024-03-23T13:39:15;10.50;78.40
15274;DHT22;7738;49.532;11.156;2024-03-23T13:41:42;12.30;81.00
15274;DHT22;7738;49.532;11.156;2024-03-23T13:44:10;14.10;77.60
15274;DHT22;7738;49.532;11.156;2024-03-23T13:46:40;12.10;69.20
15274;DHT22;7738;49.532;11.156;2024-03-23T13:49:07;14.10;73.00
15274;DHT22;7738;49.532;11.156;2024-03-23T13:51:33;11.50;70.90
15274;DHT22;7738;49.532;11.156;2024-03-23T13:58:55;11.50;71.80
15274;DHT22;7738;49.532;11.156;2024-03-23T14:03:51;10.90;67.00
15274;DHT22;7738;49.532;11.156;2024-03-23T14:08:44;10.50;67.50
15274;DHT22;7738;49.532;11.156;2024-03-23T14:16:05;10.20;70.70
15274;DHT22;7738;49.532;11.156;2024-03-23T14:21:01;10.10;73.90
15274;DHT22;7738;49.532;11.156;2024-03-23T14:23:28;9.90;72.70
15274;DHT22;7738;49.532;11.156;2024-03-23T14:25:56;9.70;73.80
15274;DHT22;7738;49.532;11.156;2024-03-23T14:28:22;9.60;75.60
15274;DHT22;7738;49.532;11.156;2024-03-23T14:30:49;9.60;76.90
15274;DHT22;7738;49.532;11.156;2024-03-23T14:33:16;9.60;75.60
15274;DHT22;7738;49.532;11.156;2024-03-23T14:35:43;9.50;76.30
15274;DHT22;7738;49.532;11.156;2024-03-23T14:38:12;9.80;78.10
15274;DHT22;7738;49.532;11.156;2024-03-23T14:40:38;10.40;77.10
15274;DHT22;7738;49.532;11.156;2024-03-23T14:43:05;10.80;77.10
15274;DHT22;7738;49.532;11.156;2024-03-23T14:45:31;11.20;75.60
15274;DHT22;7738;49.532;11.156;2024-03-23T14:47:58;11.50;75.60
15274;DHT22;7738;49.532;11.156;2024-03-23T14:50:24;11.60;74.90
15274;DHT22;7738;49.532;11.156;2024-03-23T14:52:51;11.70;75.80
15274;DHT22;7738;49.532;11.156;2024-03-23T14:55:20;11.80;75.90
15274;DHT22;7738;49.532;11.156;2024-03-23T14:57:46;11.80;76.80
15274;DHT22;7738;49.532;11.156;2024-03-23T15:00:13;11.50;77.10
15274;DHT22;7738;49.532;11.156;2024-03-23T15:02:40;11.00;76.30
15274;DHT22;7738;49.532;11.156;2024-03-23T15:05:07;10.40;79.20
15274;DHT22;7738;49.532;11.156;2024-03-23T15:07:35;9.90;80.80
15274;DHT22;7738;49.532;11.156;2024-03-23T15:10:02;9.60;83.20
15274;DHT22;7738;49.532;11.156;2024-03-23T15:12:31;9.30;83.10
15274;DHT22;7738;49.532;11.156;2024-03-23T15:14:59;9.10;85.20
15274;DHT22;7738;49.532;11.156;2024-03-23T15:17:26;8.80;87.10
15274;DHT22;7738;49.532;11.156;2024-03-23T15:19:52;8.60;88.80
15274;DHT22;7738;49.532;11.156;2024-03-23T15:22:19;8.40;90.50
15274;DHT22;7738;49.532;11.156;2024-03-23T15:24:46;8.20;91.60
15274;DHT22;7738;49.532;11.156;2024-03-23T15:27:13;7.80;95.30
15274;DHT22;7738;49.532;11.156;2024-03-23T15:29:42;6.90;99.90
15274;DHT22;7738;49.532;11.156;2024-03-23T15:32:09;6.30;99.90
15274;DHT22;7738;49.532;11.156;2024-03-23T15:34:35;5.80;99.90
15274;DHT22;7738;49.532;11.156;2024-03-23T15:37:01;5.50;99.90
15274;DHT22;7738;49.532;11.156;2024-03-23T15:39:28;5.40;99.90
15274;DHT22;7738;49.532;11.156;2024-03-23T15:41:54;5.60;99.90
15274;DHT22;7738;49.532;11.156;2024-03-23T15:44:21;5.80;99.90
15274;DHT22;7738;49.532;11.156;2024-03-23T15:46:50;5.90;99.90
15274;DHT22;7738;49.532;11.156;2024-03-23T15:49:16;6.00;99.90
15274;DHT22;7738;49.532;11.156;2024-03-23T15:51:42;6.10;99.90
15274;DHT22;7738;49.532;11.156;2024-03-23T15:54:09;6.00;99.90
15274;DHT22;7738;49.532;11.156;2024-03-23T15:56:36;5.90;99.90
15274;DHT22;7738;49.532;11.156;2024-03-23T15:59:02;6.00;99.90
15274;DHT22;7738;49.532;11.156;2024-03-23T16:01:31;6.00;99.90
15274;DHT22;7738;49.532;11.156;2024-03-23T16:04:00;6.10;99.90
15274;DHT22;7738;49.532;11.156;2024-03-23T16:06:26;6.20;99.90
15274;DHT22;7738;49.532;11.156;2024-03-23T16:08:53;6.10;99.90
15274;DHT22;7738;49.532;11.156;2024-03-23T16:11:19;6.20;99.90
15274;DHT22;7738;49.532;11.156;2024-03-23T16:13:46;6.10;99.90
15274;DHT22;7738;49.532;11.156;2024-03-23T16:16:12;6.10;99.90
15274;DHT22;7738;49.532;11.156;2024-03-23T16:18:39;6.00;99.90
15274;DHT22;7738;49.532;11.156;2024-03-23T16:21:09;6.00;99.90
15274;DHT22;7738;49.532;11.156;2024-03-23T16:23:36;6.00;99.90
15274;DHT22;7738;49.532;11.156;2024-03-23T16:26:04;6.10;99.90
15274;DHT22;7738;49.532;11.156;2024-03-23T16:28:32;6.10;99.90
15274;DHT22;7738;49.532;11.156;2024-03-23T16:30:59;6.30;99.90
15274;DHT22;7738;49.532;11.156;2024-03-23T16:33:26;6.40;99.90
15274;DHT22;7738;49.532;11.156;2024-03-23T16:35:57;6.40;99.90
15274;DHT22;7738;49.532;11.156;2024-03-23T16:38:26;6.40;99.90
15274;DHT22;7738;49.532;11.156;2024-03-23T16:40:54;6.50;99.90
15274;DHT22;7738;49.532;11.156;2024-03-23T16:43:21;6.40;99.90
15274;DHT22;7738;49.532;11.156;2024-03-23T16:45:53;6.40;99.90
15274;DHT22;7738;49.532;11.156;2024-03-23T16:48:20;6.40;99.90
15274;DHT22;7738;49.532;11.156;2024-03-23T16:50:46;6.30;99.90
15274;DHT22;7738;49.532;11.156;2024-03-23T16:53:13;6.20;99.90
15274;DHT22;7738;49.532;11.156;2024-03-23T16:55:42;6.20;99.90
15274;DHT22;7738;49.532;11.156;2024-03-23T16:58:09;6.10;99.90
15274;DHT22;7738;49.532;11.156;2024-03-23T17:00:36;6.10;99.90
15274;DHT22;7738;49.532;11.156;2024-03-23T17:03:02;6.00;99.90
15274;DHT22;7738;49.532;11.156;2024-03-23T17:05:29;5.90;99.90
15274;DHT22;7738;49.532;11.156;2024-03-23T17:08:02;5.90;99.90
15274;DHT22;7738;49.532;11.156;2024-03-23T17:10:29;5.80;99.90
15274;DHT22;7738;49.532;11.156;2024-03-23T17:12:58;5.70;99.90
15274;DHT22;7738;49.532;11.156;2024-03-23T17:15:26;5.70;99.90
15274;DHT22;7738;49.532;11.156;2024-03-23T17:17:52;5.60;99.90
15274;DHT22;7738;49.532;11.156;2024-03-23T17:20:19;5.60;99.90
15274;DHT22;7738;49.532;11.156;2024-03-23T17:22:53;5.60;99.90
15274;DHT22;7738;49.532;11.156;2024-03-23T17:25:19;5.50;99.90
15274;DHT22;7738;49.532;11.156;2024-03-23T17:27:45;5.40;99.90
15274;DHT22;7738;49.532;11.156;2024-03-23T17:30:17;5.40;99.90
15274;DHT22;7738;49.532;11.156;2024-03-23T17:32:44;5.40;99.90
15274;DHT22;7738;49.532;11.156;2024-03-23T17:35:10;5.30;99.90
15274;DHT22;7738;49.532;11.156;2024-03-23T17:37:37;5.30;99.90
15274;DHT22;7738;49.532;11.156;2024-03-23T17:40:07;5.30;99.90
15274;DHT22;7738;49.532;11.156;2024-03-23T17:42:35;5.30;99.90
15274;DHT22;7738;49.532;11.156;2024-03-23T17:45:01;5.30;99.90
15274;DHT22;7738;49.532;11.156;2024-03-23T17:47:34;5.30;99.90
15274;DHT22;7738;49.532;11.156;2024-03-23T17:50:01;5.30;99.90
15274;DHT22;7738;49.532;11.156;2024-03-23T17:52:27;5.30;99.90
15274;DHT22;7738;49.532;11.156;2024-03-23T17:54:54;5.20;99.90
15274;DHT22;7738;49.532;11.156;2024-03-23T17:57:20;5.30;99.90
15274;DHT22;7738;49.532;11.156;2024-03-23T17:59:46;5.30;99.90
15274;DHT22;7738;49.532;11.156;2024-03-23T18:02:13;5.30;99.90
15274;DHT22;7738;49.532;11.156;2024-03-23T18:04:42;5.30;99.90
15274;DHT22;7738;49.532;11.156;2024-03-23T18:07:09;5.20;99.90
15274;DHT22;7738;49.532;11.156;2024-03-23T18:09:35;5.10;99.90
15274;DHT22;7738;49.532;11.156;2024-03-23T18:12:02;5.10;99.90
15274;DHT22;7738;49.532;11.156;2024-03-23T18:14:29;5.00;99.90
15274;DHT22;7738;49.532;11.156;2024-03-23T18:16:55;5.00;99.90
15274;DHT22;7738;49.532;11.156;2024-03-23T18:19:22;5.00;99.90
15274;DHT22;7738;49.532;11.156;2024-03-23T18:21:51;4.90;99.90
15274;DHT22;7738;49.532;11.156;2024-03-23T18:24:17;4.90;99.90
15274;DHT22;7738;49.532;11.156;2024-03-23T18:26:44;4.90;99.90
15274;DHT22;7738;49.532;11.156;2024-03-23T18:29:10;4.90;99.90
15274;DHT22;7738;49.532;11.156;2024-03-23T18:31:37;4.90;99.90
15274;DHT22;7738;49.532;11.156;2024-03-23T18:34:03;4.90;99.90
15274;DHT22;7738;49.532;11.156;2024-03-23T18:36:29;4.90;99.90
15274;DHT22;7738;49.532;11.156;2024-03-23T18:38:59;4.90;99.90
15274;DHT22;7738;49.532;11.156;2024-03-23T18:41:26;4.80;99.90
15274;DHT22;7738;49.532;11.156;2024-03-23T18:43:52;4.80;99.90
15274;DHT22;7738;49.532;11.156;2024-03-23T18:46:19;4.70;99.90
15274;DHT22;7738;49.532;11.156;2024-03-23T18:48:49;4.60;99.90
15274;DHT22;7738;49.532;11.156;2024-03-23T18:51:16;3.90;99.90
15274;DHT22;7738;49.532;11.156;2024-03-23T18:53:42;4.50;99.90
15274;DHT22;7738;49.532;11.156;2024-03-23T18:56:14;4.50;99.90
15274;DHT22;7738;49.532;11.156;2024-03-23T18:58:40;4.40;99.90
15274;DHT22;7738;49.532;11.156;2024-03-23T19:01:07;4.40;99.90
15274;DHT22;7738;49.532;11.156;2024-03-23T19:03:34;5.20;99.90
15274;DHT22;7738;49.532;11.156;2024-03-23T19:06:02;4.40;99.90
15274;DHT22;7738;49.532;11.156;2024-03-23T19:08:28;4.40;99.90
15274;DHT22;7738;49.532;11.156;2024-03-23T19:10:56;4.40;99.90
15274;DHT22;7738;49.532;11.156;2024-03-23T19:13:26;4.40;99.90
15274;DHT22;7738;49.532;11.156;2024-03-23T19:15:53;4.40;99.90
15274;DHT22;7738;49.532;11.156;2024-03-23T19:18:19;4.40;99.90
15274;DHT22;7738;49.532;11.156;2024-03-23T19:20:51;4.50;99.90
15274;DHT22;7738;49.532;11.156;2024-03-23T19:23:18;4.50;99.90
15274;DHT22;7738;49.532;11.156;2024-03-23T19:25:51;4.50;99.90
15274;DHT22;7738;49.532;11.156;2024-03-23T19:28:18;4.50;99.90
15274;DHT22;7738;49.532;11.156;2024-03-23T19:30:48;4.40;99.90
15274;DHT22;7738;49.532;11.156;2024-03-23T19:33:15;4.60;99.90
15274;DHT22;7738;49.532;11.156;2024-03-23T19:35:41;4.10;99.90
15274;DHT22;7738;49.532;11.156;2024-03-23T19:38:08;4.00;99.90
15274;DHT22;7738;49.532;11.156;2024-03-23T19:40:35;3.90;99.90
15274;DHT22;7738;49.532;11.156;2024-03-23T19:43:03;3.80;99.90
15274;DHT22;7738;49.532;11.156;2024-03-23T19:45:29;3.80;99.90
15274;DHT22;7738;49.532;11.156;2024-03-23T19:48:00;3.70;99.90
15274;DHT22;7738;49.532;11.156;2024-03-23T19:50:26;3.50;99.90
15274;DHT22;7738;49.532;11.156;2024-03-23T19:52:53;3.40;99.90
15274;DHT22;7738;49.532;11.156;2024-03-23T19:55:19;3.40;99.90
15274;DHT22;7738;49.532;11.156;2024-03-23T19:57:46;3.30;99.90
15274;DHT22;7738;49.532;11.156;2024-03-23T20:00:13;3.30;99.90
15274;DHT22;7738;49.532;11.156;2024-03-23T20:02:43;3.20;99.90
15274;DHT22;7738;49.532;11.156;2024-03-23T20:05:13;3.20;99.90
15274;DHT22;7738;49.532;11.156;2024-03-23T20:07:39;3.20;99.90
15274;DHT22;7738;49.532;11.156;2024-03-23T20:10:07;3.10;99.90
15274;DHT22;7738;49.532;11.156;2024-03-23T20:12:33;3.10;99.90
15274;DHT22;7738;49.532;11.156;2024-03-23T20:15:00;3.00;99.90
15274;DHT22;7738;49.532;11.156;2024-03-23T20:17:30;2.90;99.90
15274;DHT22;7738;49.532;11.156;2024-03-23T20:19:56;2.90;99.90
15274;DHT22;7738;49.532;11.156;2024-03-23T20:22:25;2.90;99.90
15274;DHT22;7738;49.532;11.156;2024-03-23T20:24:52;2.90;99.90
15274;DHT22;7738;49.532;11.156;2024-03-23T20:27:19;2.80;99.90
15274;DHT22;7738;49.532;11.156;2024-03-23T20:29:45;2.80;99.90
15274;DHT22;7738;49.532;11.156;2024-03-23T20:32:12;2.70;99.90
15274;DHT22;7738;49.532;11.156;2024-03-23T20:34:38;2.70;99.90
15274;DHT22;7738;49.532;11.156;2024-03-23T20:37:05;2.80;99.90
15274;DHT22;7738;49.532;11.156;2024-03-23T20:39:34;2.70;99.90
15274;DHT22;7738;49.532;11.156;2024-03-23T20:42:00;2.60;99.90
15274;DHT22;7738;49.532;11.156;2024-03-23T20:44:26;2.60;99.90
15274;DHT22;7738;49.532;11.156;2024-03-23T20:46:53;2.60;99.90
15274;DHT22;7738;49.532;11.156;2024-03-23T20:49:20;2.60;99.90
15274;DHT22;7738;49.532;11.156;2024-03-23T20:51:47;2.60;99.90
15274;DHT22;7738;49.532;11.156;2024-03-23T20:54:13;2.60;99.90
15274;DHT22;7738;49.532;11.156;2024-03-23T20:56:42;2.60;99.90
15274;DHT22;7738;49.532;11.156;2024-03-23T20:59:09;2.60;99.90
15274;DHT22;7738;49.532;11.156;2024-03-23T21:01:35;2.60;99.90
15274;DHT22;7738;49.532;11.156;2024-03-23T21:04:02;2.60;99.90
15274;DHT22;7738;49.532;11.156;2024-03-23T21:06:28;2.70;99.90
15274;DHT22;7738;49.532;11.156;2024-03-23T21:08:55;2.50;99.90
15274;DHT22;7738;49.532;11.156;2024-03-23T21:11:22;2.60;99.90
15274;DHT22;7738;49.532;11.156;2024-03-23T21:13:51;2.50;99.90
15274;DHT22;7738;49.532;11.156;2024-03-23T21:16:17;2.50;99.90
15274;DHT22;7738;49.532;11.156;2024-03-23T21:18:44;2.50;99.90
15274;DHT22;7738;49.532;11.156;2024-03-23T21:21:10;2.50;99.90
15274;DHT22;7738;49.532;11.156;2024-03-23T21:23:37;2.50;99.90
15274;DHT22;7738;49.532;11.156;2024-03-23T21:26:04;2.50;99.90
15274;DHT22;7738;49.532;11.156;2024-03-23T21:28:31;2.50;99.90
15274;DHT22;7738;49.532;11.156;2024-03-23T21:31:03;2.50;99.90
15274;DHT22;7738;49.532;11.156;2024-03-23T21:33:30;2.50;99.90
15274;DHT22;7738;49.532;11.156;2024-03-23T21:35:57;2.50;99.90
15274;DHT22;7738;49.532;11.156;2024-03-23T21:38:24;2.50;99.90